ADDS METAR Data INFO
IDs: Format: Raw Decoded Include TAF

Data at: 0136 UTC 20 Feb 2018

KSUA 200050Z 09010KT 7SM SCT025 BKN070 24/21 A3028
KSUA 192350Z 10011G15KT 7SM SCT025 BKN060 25/21 A3028
KSUA 192250Z 11012KT 7SM BKN070 25/21 A3027
KSUA 192150Z 11011KT 7SM SCT070 27/21 A3026
KSUA 192047Z 11015KT 7SM SCT035 BKN045 27/20 A3026
KSUA 191947Z 11015KT 7SM SCT035 BKN045 28/20 A3026
KSUA 191850Z 10013G19KT 7SM SCT025 28/21 A3029
KSUA 191750Z 11013G19KT 7SM SCT035 27/20 A3030
KSUA 191650Z 11014G20KT 7SM SCT030 28/19 A3032
KSUA 191547Z 10012G18KT 7SM SCT030 27/19 A3033
KSUA 191447Z 11012KT 7SM SCT024 SCT045 27/19 A3032
KSUA 191347Z 11012G18KT 7SM SCT020 SCT036 24/19 A3031
KSUA 191247Z 11012G18KT 7SM SCT030 24/19 A3029
KSUA 191151Z 110010KT 7SM SCT035 23/19 A3027
KSUA 191150Z 110010KT 7SM CLR 23/19 A3027
KSUA 191035Z AUTO 11010KT 10SM CLR 23/18 A3026 RMK AO2
KSUA 191015Z AUTO 10011KT 10SM CLR 23/18 A3025 RMK AO2
KSUA 190955Z AUTO 10011G15KT 10SM CLR 23/18 A3025 RMK AO2
KSUA 190935Z AUTO 10011G16KT 10SM CLR 23/18 A3025 RMK AO2
KSUA 190915Z AUTO 10011KT 10SM CLR 23/18 A3025 RMK AO2
KSUA 190855Z AUTO 11011G14KT 10SM CLR 23/18 A3025 RMK AO2
KSUA 190835Z AUTO 11012KT 10SM CLR 23/18 A3025 RMK AO2
KSUA 190815Z AUTO 11009KT 10SM SCT033 23/18 A3025 RMK AO2
KSUA 190755Z AUTO 10011KT 10SM CLR 23/18 A3024 RMK AO2
KSUA 190735Z AUTO 10008G16KT 10SM CLR 23/18 A3024 RMK AO2
KSUA 190715Z AUTO 10009KT 10SM CLR 23/18 A3025 RMK AO2
KSUA 190655Z AUTO 10012KT 10SM CLR 23/18 A3025 RMK AO2
KSUA 190635Z AUTO 10009KT 10SM CLR 23/18 A3025 RMK AO2
KSUA 190615Z AUTO 10010KT 10SM CLR 23/18 A3026 RMK AO2
KSUA 190555Z AUTO 10010KT 10SM CLR 23/18 A3026 RMK AO2
KSUA 190535Z AUTO 10010G14KT 10SM CLR 23/18 A3026 RMK AO2
KSUA 190515Z AUTO 10009KT 10SM CLR 23/18 A3026 RMK AO2
KSUA 190455Z AUTO 10010KT 10SM CLR 23/18 A3027 RMK AO2
KSUA 190435Z AUTO 10008KT 10SM CLR 23/18 A3027 RMK AO2
KSUA 190415Z AUTO 10011G14KT 10SM CLR 23/18 A3028 RMK AO2
KSUA 190355Z AUTO 10009KT 10SM CLR 23/18 A3027 RMK AO2
KSUA 190335Z AUTO 10010G16KT 10SM CLR 23/18 A3028 RMK AO2
KSUA 190315Z AUTO 10009G14KT 10SM CLR 23/18 A3027 RMK AO2
KSUA 190250Z 10006KT 7SM SKC 24/19 A3028
KSUA 190150Z 10006KT 7SM SKC 24/19 A3027
KSUA 190050Z 10006KT 7SM FEW050 23/19 A3025
KSUA 182350Z 10006KT 7SM FEW050 23/19 A3024
KSUA 182250Z 10008KT 7SM FEW050 25/19 A3023
KSUA 182150Z 11010KT 7SM FEW050 27/19 A3021
KSUA 182050Z 11010KT 7SM SCT050 28/19 A3020
KSUA 181950Z 13011KT 7SM SCT050 27/18 A3020
KSUA 181850Z 11011KT 7SM SCT045 28/20 A3022
KSUA 181750Z 10008KT 7SM SCT045 27/20 A3023
KSUA 181650Z 10008KT 7SM CLR 27/19 A3025
KSUA 181550Z 10008KT 7SM CLR 28/19 A3026
KSUA 181450Z VRB04KT 7SM CLR 25/19 A3025
KSUA 181350Z VRB04KT 7SM SKC 24/18 A3025